Time;durP1;ratioP1;P1;durP2;ratioP2;P2;SDS_P1;SDS_P2;PMS_P1;PMS_P2;Temp;Humidity;BMP_temperature;BMP_pressure;BME280_temperature;BME280_humidity;BME280_pressure;Samples;Min_cycle;Max_cycle;Signal;HPM_P1;HPM_P2
2022/05/01 00:00:00;;;;;;;;;;;;;;;5.07;66.60;101162.16;85562;1336;23312;-75
2022/05/01 00:02:05;;;;;;;;;;;;;;;5.03;66.85;101162.18;85415;1341;22619;-75
2022/05/01 00:04:12;;;;;;;;;;;;;;;4.99;66.97;101163.41;85553;1338;22516;-75
2022/05/01 00:06:16;;;;;;;;;;;;;;;4.94;67.13;101164.27;85565;1336;22622;-75
2022/05/01 00:08:21;;;;;;;;;;;;;;;4.90;66.92;101164.98;85580;1336;22497;-80
2022/05/01 00:10:26;;;;;;;;;;;;;;;4.86;67.11;101165.33;85572;1336;23166;-79
2022/05/01 00:12:31;;;;;;;;;;;;;;;4.82;67.08;101161.70;84859;1336;1002559;-79
2022/05/01 00:14:36;;;;;;;;;;;;;;;4.78;67.38;101158.95;85566;1339;22470;-79
2022/05/01 00:16:40;;;;;;;;;;;;;;;4.73;67.49;101159.81;85563;1336;22530;-79
2022/05/01 00:18:45;;;;;;;;;;;;;;;4.69;67.70;101159.13;85539;1341;23096;-76
2022/05/01 00:20:50;;;;;;;;;;;;;;;4.64;68.04;101159.31;85523;1339;23118;-75
2022/05/01 00:22:58;;;;;;;;;;;;;;;4.60;68.03;101160.70;85501;1339;22501;-76
2022/05/01 00:25:03;;;;;;;;;;;;;;;4.57;68.02;101160.17;85513;1338;22479;-75
2022/05/01 00:27:07;;;;;;;;;;;;;;;4.53;68.36;101158.63;85517;1333;22589;-79
2022/05/01 00:29:15;;;;;;;;;;;;;;;4.50;68.23;101162.79;85515;1339;22495;-80
2022/05/01 00:31:19;;;;;;;;;;;;;;;4.46;68.24;101161.92;85546;1334;22516;-79
2022/05/01 00:38:08;;;;;;;;;;;;;;;4.39;68.55;101156.06;85473;1336;23096;-79
2022/05/01 00:40:13;;;;;;;;;;;;;;;4.37;68.76;101157.76;85538;1339;22524;-79
2022/05/01 00:42:21;;;;;;;;;;;;;;;4.34;68.84;101158.64;85545;1333;22477;-79
2022/05/01 00:44:29;;;;;;;;;;;;;;;4.31;68.98;101156.04;85544;1336;22496;-79
2022/05/01 00:46:36;;;;;;;;;;;;;;;4.29;69.11;101160.02;85537;1339;22549;-79
2022/05/01 00:48:41;;;;;;;;;;;;;;;4.27;69.09;101159.66;85548;1337;22555;-80
2022/05/01 00:50:46;;;;;;;;;;;;;;;4.24;69.37;101157.42;85548;1336;23126;-79
2022/05/01 00:52:51;;;;;;;;;;;;;;;4.21;69.66;101152.59;85531;1336;22447;-75
2022/05/01 00:54:55;;;;;;;;;;;;;;;4.20;69.81;101151.73;85480;1339;22987;-75
2022/05/01 00:57:04;;;;;;;;;;;;;;;4.18;69.97;101153.10;85473;1339;23267;-78
2022/05/01 00:59:10;;;;;;;;;;;;;;;4.15;70.00;101151.20;85542;1340;22475;-79
2022/05/01 01:01:14;;;;;;;;;;;;;;;4.14;70.20;101156.73;85536;1339;23143;-79
2022/05/01 01:03:20;;;;;;;;;;;;;;;4.13;70.10;101150.84;85280;1340;22529;-78
2022/05/01 01:05:26;;;;;;;;;;;;;;;4.14;70.27;101152.41;85371;1339;22667;-79
2022/05/01 01:07:30;;;;;;;;;;;;;;;4.12;70.17;101149.98;85570;1336;23172;-79
2022/05/01 01:09:35;;;;;;;;;;;;;;;4.12;70.43;101154.13;84863;1336;1003000;-79
2022/05/01 01:11:40;;;;;;;;;;;;;;;4.11;70.19;101155.34;85573;1338;22493;-79
2022/05/01 01:13:47;;;;;;;;;;;;;;;4.10;70.40;101154.66;85575;1339;22465;-75
2022/05/01 01:15:52;;;;;;;;;;;;;;;4.09;70.39;101152.92;85578;1338;23112;-75
2022/05/01 01:17:59;;;;;;;;;;;;;;;4.08;70.32;101156.70;85583;1336;22459;-75
2022/05/01 01:20:11;;;;;;;;;;;;;;;4.07;70.14;101153.95;85568;1336;23017;-75
2022/05/01 01:22:16;;;;;;;;;;;;;;;4.07;70.20;101150.33;84170;1340;1002512;-80
2022/05/01 01:24:21;;;;;;;;;;;;;;;4.08;70.37;101151.01;85585;1340;22583;-80
2022/05/01 01:26:25;;;;;;;;;;;;;;;4.08;70.46;101152.39;85589;1339;23076;-80
2022/05/01 01:28:30;;;;;;;;;;;;;;;4.09;70.55;101153.10;85582;1337;23044;-76
2022/05/01 01:33:01;;;;;;;;;;;;;;;4.12;70.47;101153.78;85533;1341;23086;-75
2022/05/01 01:35:07;;;;;;;;;;;;;;;4.17;70.56;101157.59;85580;1337;23065;-76
2022/05/01 01:37:12;;;;;;;;;;;;;;;4.18;70.41;101152.23;85586;1337;22572;-75
2022/05/01 01:39:18;;;;;;;;;;;;;;;4.18;70.39;101150.84;85424;1338;22512;-75
2022/05/01 01:41:25;;;;;;;;;;;;;;;4.16;70.52;101149.13;85585;1337;22518;-75
2022/05/01 01:43:32;;;;;;;;;;;;;;;4.13;70.42;101148.77;85592;1337;22512;-75
2022/05/01 01:45:37;;;;;;;;;;;;;;;4.14;70.43;101146.19;85581;1339;23132;-75
2022/05/01 01:47:43;;;;;;;;;;;;;;;4.16;70.55;101141.19;85422;1338;23198;-75
2022/05/01 01:49:52;;;;;;;;;;;;;;;4.14;70.41;101133.59;85533;1338;22553;-76
2022/05/01 01:52:00;;;;;;;;;;;;;;;4.12;70.21;101134.45;85603;1337;22478;-79
2022/05/01 01:54:04;;;;;;;;;;;;;;;4.08;70.30;101135.13;85335;1343;22429;-79
2022/05/01 01:56:09;;;;;;;;;;;;;;;4.05;70.36;101141.34;84155;1337;1002547;-79
2022/05/01 01:58:14;;;;;;;;;;;;;;;4.00;70.40;101134.95;85612;1333;22572;-75
2022/05/01 02:00:19;;;;;;;;;;;;;;;3.95;70.43;101138.75;85416;1339;23195;-75
2022/05/01 02:02:23;;;;;;;;;;;;;;;3.87;70.36;101138.56;85618;1337;23144;-75
2022/05/01 02:04:28;;;;;;;;;;;;;;;3.80;70.42;101133.89;85589;1338;23233;-75
2022/05/01 02:06:32;;;;;;;;;;;;;;;3.75;70.52;101134.91;85578;1340;23237;-75
2022/05/01 02:08:37;;;;;;;;;;;;;;;3.70;70.62;101132.48;85614;1337;22476;-75
2022/05/01 02:10:45;;;;;;;;;;;;;;;3.64;70.89;101131.77;85593;1333;22447;-75
2022/05/01 02:12:50;;;;;;;;;;;;;;;3.59;70.85;101136.59;85575;1339;23065;-79
2022/05/01 02:14:54;;;;;;;;;;;;;;;3.54;71.01;101135.38;85591;1339;23231;-79
2022/05/01 02:16:59;;;;;;;;;;;;;;;3.50;71.15;101136.58;85588;1337;22491;-76
2022/05/01 02:19:06;;;;;;;;;;;;;;;3.46;71.33;101140.35;85587;1338;22575;-75
2022/05/01 02:23:38;;;;;;;;;;;;;;;3.41;71.62;101139.31;85601;1337;23116;-75
2022/05/01 02:25:43;;;;;;;;;;;;;;;3.39;71.61;101139.98;85604;1333;22483;-75
2022/05/01 02:27:50;;;;;;;;;;;;;;;3.35;71.70;101139.45;85592;1338;22502;-76
2022/05/01 02:29:55;;;;;;;;;;;;;;;3.33;71.78;101140.83;85542;1339;23130;-75
2022/05/01 02:31:59;;;;;;;;;;;;;;;3.31;72.09;101145.30;85571;1337;23142;-79
2022/05/01 02:34:07;;;;;;;;;;;;;;;3.28;71.98;101145.45;85602;1338;23032;-79
2022/05/01 02:36:12;;;;;;;;;;;;;;;3.24;72.43;101146.30;85561;1337;22505;-79
2022/05/01 02:38:20;;;;;;;;;;;;;;;3.20;72.46;101145.44;85597;1338;22524;-75
2022/05/01 02:40:25;;;;;;;;;;;;;;;3.16;72.67;101141.44;85426;1339;23084;-76
2022/05/01 02:42:30;;;;;;;;;;;;;;;3.13;72.72;101142.80;84824;1335;1003113;-75
2022/05/01 02:44:35;;;;;;;;;;;;;;;3.10;72.93;101138.66;85432;1339;22476;-75
2022/05/01 02:46:40;;;;;;;;;;;;;;;3.08;72.84;101139.34;85574;1337;22533;-75
2022/05/01 02:48:45;;;;;;;;;;;;;;;3.06;72.89;101139.66;85599;1339;22432;-75
2022/05/01 02:50:49;;;;;;;;;;;;;;;3.05;73.01;101137.42;85578;1337;22527;-75
2022/05/01 02:52:55;;;;;;;;;;;;;;;3.05;72.97;101138.63;85580;1339;23104;-75
2022/05/01 02:54:59;;;;;;;;;;;;;;;3.04;72.98;101137.41;85567;1341;22598;-75
2022/05/01 02:57:04;;;;;;;;;;;;;;;3.02;73.05;101140.52;84851;1339;1002605;-79
2022/05/01 02:59:09;;;;;;;;;;;;;;;2.99;73.05;101141.00;85453;1339;23104;-80
2022/05/01 03:01:14;;;;;;;;;;;;;;;2.96;73.21;101142.54;85565;1339;22491;-79
2022/05/01 03:03:18;;;;;;;;;;;;;;;2.94;73.21;101145.11;84853;1338;1002333;-79
2022/05/01 03:05:24;;;;;;;;;;;;;;;2.89;73.07;101144.23;85556;1339;23035;-79
2022/05/01 03:07:29;;;;;;;;;;;;;;;2.83;72.96;101142.30;85574;1338;23215;-80
2022/05/01 03:09:33;;;;;;;;;;;;;;;2.78;73.42;101139.85;85551;1338;22479;-80
2022/05/01 03:11:40;;;;;;;;;;;;;;;2.76;73.40;101142.09;85571;1337;22527;-80
2022/05/01 03:13:48;;;;;;;;;;;;;;;2.75;73.39;101143.10;85566;1338;22556;-80
2022/05/01 03:15:52;;;;;;;;;;;;;;;2.75;73.61;101147.41;85558;1340;22475;-80
2022/05/01 03:22:42;;;;;;;;;;;;;;;2.69;73.68;101143.76;85444;1339;23080;-80
2022/05/01 03:24:47;;;;;;;;;;;;;;;2.67;73.77;101146.52;85558;1339;22519;-80
2022/05/01 03:26:54;;;;;;;;;;;;;;;2.67;74.07;101145.13;85570;1337;22523;-76
2022/05/01 03:28:59;;;;;;;;;;;;;;;2.67;74.08;101143.41;85554;1338;23133;-75
2022/05/01 03:31:08;;;;;;;;;;;;;;;2.67;74.04;101144.79;85461;1341;22493;-75
2022/05/01 03:33:13;;;;;;;;;;;;;;;2.68;74.05;101145.14;85470;1339;22575;-80
2022/05/01 03:35:18;;;;;;;;;;;;;;;2.68;74.22;101143.92;85510;1339;23024;-79
2022/05/01 03:37:22;;;;;;;;;;;;;;;2.70;74.42;101146.34;85520;1339;22667;-80
2022/05/01 03:39:27;;;;;;;;;;;;;;;2.73;74.49;101148.78;85470;1339;23044;-80
2022/05/01 03:41:32;;;;;;;;;;;;;;;2.76;74.56;101148.80;85553;1333;23081;-79
2022/05/01 03:43:39;;;;;;;;;;;;;;;2.82;74.78;101147.63;85556;1339;22497;-76
2022/05/01 03:45:44;;;;;;;;;;;;;;;2.88;74.73;101153.01;85561;1339;23205;-75
2022/05/01 03:47:48;;;;;;;;;;;;;;;2.95;74.75;101147.53;85565;1339;22498;-76
2022/05/01 03:49:55;;;;;;;;;;;;;;;3.03;74.83;101148.95;85416;1339;22516;-76
2022/05/01 03:52:00;;;;;;;;;;;;;;;3.12;74.87;101149.86;85575;1338;22438;-80
2022/05/01 03:54:05;;;;;;;;;;;;;;;3.22;75.13;101149.57;85451;1339;22506;-80
2022/05/01 03:56:10;;;;;;;;;;;;;;;3.32;75.18;101146.52;85489;1339;22556;-79
2022/05/01 03:58:15;;;;;;;;;;;;;;;3.44;74.97;101145.02;85558;1339;22506;-80
2022/05/01 04:00:19;;;;;;;;;;;;;;;3.65;75.60;101145.42;85541;1339;22603;-80
2022/05/01 04:02:24;;;;;;;;;;;;;;;4.01;75.71;101144.45;85466;1336;22634;-75
2022/05/01 04:04:29;;;;;;;;;;;;;;;4.38;75.58;101139.80;85560;1338;22503;-76
2022/05/01 04:06:37;;;;;;;;;;;;;;;4.85;75.54;101134.73;85542;1337;23256;-76
2022/05/01 04:08:42;;;;;;;;;;;;;;;5.42;75.99;101138.00;85483;1339;23120;-75
2022/05/01 04:10:46;;;;;;;;;;;;;;;5.85;75.35;101136.57;85557;1336;22484;-76
2022/05/01 04:12:52;;;;;;;;;;;;;;;6.15;73.15;101134.30;85471;1341;23176;-75
2022/05/01 04:14:59;;;;;;;;;;;;;;;6.28;71.83;101136.62;85550;1337;22467;-76
2022/05/01 04:17:05;;;;;;;;;;;;;;;6.35;71.20;101136.21;85544;1338;23070;-76
2022/05/01 04:19:11;;;;;;;;;;;;;;;6.57;70.91;101135.33;85553;1336;23570;-76
2022/05/01 04:21:16;;;;;;;;;;;;;;;6.73;70.36;101135.88;85566;1337;23048;-76
2022/05/01 04:23:24;;;;;;;;;;;;;;;6.80;69.68;101137.70;85569;1340;23113;-80
2022/05/01 04:25:30;;;;;;;;;;;;;;;6.90;69.56;101137.60;85466;1338;22527;-80
2022/05/01 04:27:35;;;;;;;;;;;;;;;7.14;69.72;101135.77;85540;1339;22538;-81
2022/05/01 04:29:41;;;;;;;;;;;;;;;7.45;69.42;101134.86;85560;1337;23151;-81
2022/05/01 04:31:45;;;;;;;;;;;;;;;7.83;68.90;101134.00;85469;1340;23102;-81
2022/05/01 04:33:50;;;;;;;;;;;;;;;8.53;69.75;101130.98;85560;1339;23197;-81
2022/05/01 04:35:59;;;;;;;;;;;;;;;9.55;69.72;101130.73;85569;1335;23049;-81
2022/05/01 04:38:05;;;;;;;;;;;;;;;10.67;66.75;101127.39;85412;1340;22538;-76
2022/05/01 04:40:11;;;;;;;;;;;;;;;11.65;64.30;101125.31;85410;1339;22500;-76
2022/05/01 04:42:19;;;;;;;;;;;;;;;12.47;61.98;101123.93;85568;1339;22614;-81
2022/05/01 04:44:24;;;;;;;;;;;;;;;13.23;60.28;101123.02;85564;1339;23151;-82
2022/05/01 04:46:29;;;;;;;;;;;;;;;14.15;57.79;101119.80;85570;1340;22595;-81
2022/05/01 04:48:34;;;;;;;;;;;;;;;14.95;55.58;101122.42;85425;1339;23188;-81
2022/05/01 04:50:38;;;;;;;;;;;;;;;15.68;53.75;101121.37;85560;1337;22482;-81
2022/05/01 04:52:46;;;;;;;;;;;;;;;16.37;51.34;101115.02;85482;1339;23060;-76
2022/05/01 04:54:51;;;;;;;;;;;;;;;17.08;49.22;101116.13;85507;1339;22464;-76
2022/05/01 04:57:09;;;;;;;;;;;;;;;17.71;46.75;101108.27;85553;1339;23103;-81
2022/05/01 04:59:17;;;;;;;;;;;;;;;18.53;45.46;101108.33;85561;1337;22476;-82
2022/05/01 05:01:23;;;;;;;;;;;;;;;19.23;42.30;101110.50;85580;1338;22695;-82
2022/05/01 05:03:27;;;;;;;;;;;;;;;19.65;41.84;101115.99;85372;1334;273908;-76
2022/05/01 05:05:32;;;;;;;;;;;;;;;20.36;41.43;101111.50;85550;1333;22755;-76
2022/05/01 05:07:37;;;;;;;;;;;;;;;21.16;39.21;101109.39;85556;1337;23168;-76
2022/05/01 05:09:55;;;;;;;;;;;;;;;21.71;37.44;101104.73;85559;1339;23132;-75
2022/05/01 05:12:04;;;;;;;;;;;;;;;22.10;35.83;101105.42;85313;1340;22544;-76
2022/05/01 05:14:10;;;;;;;;;;;;;;;22.45;35.43;101103.33;85476;1340;22433;-77
2022/05/01 05:16:14;;;;;;;;;;;;;;;22.79;34.77;101105.20;85579;1339;23123;-76
2022/05/01 05:18:19;;;;;;;;;;;;;;;23.40;33.20;101105.00;85331;1339;22494;-76
2022/05/01 05:20:25;;;;;;;;;;;;;;;23.88;32.67;101102.33;85559;1339;22497;-76
2022/05/01 05:22:30;;;;;;;;;;;;;;;24.17;31.71;101102.76;85582;1339;22628;-75
2022/05/01 05:24:34;;;;;;;;;;;;;;;24.44;30.87;101100.89;85594;1337;22487;-75
2022/05/01 05:26:39;;;;;;;;;;;;;;;24.70;30.44;101102.10;85424;1339;23177;-75
2022/05/01 05:28:47;;;;;;;;;;;;;;;24.66;29.70;101104.00;85556;1339;22464;-83
2022/05/01 05:30:51;;;;;;;;;;;;;;;24.67;29.46;101106.20;85573;1338;22499;-83
2022/05/01 05:32:56;;;;;;;;;;;;;;;24.64;29.67;101104.94;85580;1339;22564;-75
2022/05/01 05:35:04;;;;;;;;;;;;;;;24.96;29.16;101107.85;85581;1340;22484;-75
2022/05/01 05:37:11;;;;;;;;;;;;;;;25.14;28.12;101112.03;85588;1341;22512;-77
2022/05/01 05:39:18;;;;;;;;;;;;;;;25.40;28.18;101109.55;85587;1338;23064;-76
2022/05/01 05:41:23;;;;;;;;;;;;;;;25.55;27.39;101108.22;85559;1337;22527;-75
2022/05/01 05:43:28;;;;;;;;;;;;;;;25.78;27.16;101110.58;85557;1338;23237;-76
2022/05/01 05:45:35;;;;;;;;;;;;;;;25.93;27.19;101109.31;85562;1338;22474;-75
2022/05/01 05:47:43;;;;;;;;;;;;;;;26.28;26.38;101105.00;85567;1337;23104;-84
2022/05/01 05:49:47;;;;;;;;;;;;;;;26.42;26.00;101106.67;85575;1336;22650;-80
2022/05/01 05:51:52;;;;;;;;;;;;;;;26.40;26.16;101105.14;85572;1333;22480;-82
2022/05/01 05:53:57;;;;;;;;;;;;;;;26.34;25.55;101104.06;85421;1339;22467;-77
2022/05/01 05:56:02;;;;;;;;;;;;;;;26.30;25.64;101105.73;85564;1338;22490;-77
2022/05/01 05:58:06;;;;;;;;;;;;;;;26.27;25.88;101106.19;85583;1341;22578;-83
2022/05/01 06:00:13;;;;;;;;;;;;;;;25.98;25.53;101112.62;85454;1339;23258;-84
2022/05/01 06:02:18;;;;;;;;;;;;;;;25.71;25.94;101115.52;85587;1338;22513;-86
2022/05/01 06:04:26;;;;;;;;;;;;;;;25.68;25.86;101117.20;85564;1337;22515;-85
2022/05/01 06:06:31;;;;;;;;;;;;;;;25.52;25.89;101118.68;85565;1338;22523;-86
2022/05/01 06:08:38;;;;;;;;;;;;;;;25.40;26.41;101118.52;85559;1339;23244;-84
2022/05/01 06:10:43;;;;;;;;;;;;;;;25.42;26.30;101114.76;85548;1339;23123;-85
2022/05/01 06:12:47;;;;;;;;;;;;;;;25.47;26.34;101116.08;85571;1338;23135;-76
2022/05/01 06:14:52;;;;;;;;;;;;;;;25.68;26.00;101116.50;85563;1338;22462;-76
2022/05/01 06:16:56;;;;;;;;;;;;;;;25.88;25.78;101119.95;85569;1339;23116;-85
2022/05/01 06:19:03;;;;;;;;;;;;;;;26.07;26.12;101118.36;85565;1339;22568;-86
2022/05/01 06:21:08;;;;;;;;;;;;;;;26.37;25.58;101121.47;85479;1339;23198;-86
2022/05/01 06:23:13;;;;;;;;;;;;;;;26.76;25.20;101118.25;85581;1338;23057;-86
2022/05/01 06:25:17;;;;;;;;;;;;;;;27.18;24.38;101119.80;85578;1337;23134;-87
2022/05/01 06:27:22;;;;;;;;;;;;;;;27.29;24.14;101123.97;85572;1341;22489;-76
2022/05/01 06:29:26;;;;;;;;;;;;;;;27.37;23.68;101127.61;85558;1340;23145;-76
2022/05/01 06:31:31;;;;;;;;;;;;;;;27.63;23.93;101128.50;85565;1338;22502;-76
2022/05/01 06:33:36;;;;;;;;;;;;;;;28.05;23.49;101126.38;85565;1339;22530;-87
2022/05/01 06:35:40;;;;;;;;;;;;;;;28.55;22.90;101122.67;85550;1341;23274;-87
2022/05/01 06:37:45;;;;;;;;;;;;;;;28.94;22.58;101121.97;85563;1341;23183;-87
2022/05/01 06:39:50;;;;;;;;;;;;;;;28.80;21.94;101120.91;85418;1342;22483;-87
2022/05/01 06:41:57;;;;;;;;;;;;;;;28.44;22.52;101119.86;85487;1338;23129;-77
2022/05/01 06:44:02;;;;;;;;;;;;;;;28.22;22.54;101124.22;85561;1337;22483;-77
2022/05/01 06:46:07;;;;;;;;;;;;;;;28.09;22.74;101127.49;85437;1339;22491;-77
2022/05/01 06:48:14;;;;;;;;;;;;;;;28.08;22.24;101126.24;85561;1339;22496;-77
2022/05/01 06:50:21;;;;;;;;;;;;;;;28.01;22.50;101124.23;85549;1341;22611;-77
2022/05/01 06:52:26;;;;;;;;;;;;;;;28.12;22.43;101125.23;85474;1338;22514;-86
2022/05/01 06:54:31;;;;;;;;;;;;;;;28.16;21.58;101125.60;85557;1339;22487;-87
2022/05/01 06:56:35;;;;;;;;;;;;;;;28.30;21.89;101124.54;85551;1338;23186;-86
2022/05/01 06:58:40;;;;;;;;;;;;;;;28.59;21.21;101121.64;85577;1341;22556;-77
2022/05/01 07:00:45;;;;;;;;;;;;;;;28.86;21.23;101124.38;85545;1339;23075;-77
2022/05/01 07:02:50;;;;;;;;;;;;;;;29.07;20.69;101119.20;85582;1338;22460;-87
2022/05/01 07:04:55;;;;;;;;;;;;;;;29.26;21.07;101120.23;85558;1339;23148;-86
2022/05/01 07:07:02;;;;;;;;;;;;;;;29.38;20.57;101122.40;85559;1338;22490;-85
2022/05/01 07:09:07;;;;;;;;;;;;;;;29.23;20.37;101122.11;85565;1339;23198;-87
2022/05/01 07:11:12;;;;;;;;;;;;;;;29.35;20.68;101118.03;85558;1339;23236;-86
2022/05/01 07:13:16;;;;;;;;;;;;;;;29.55;20.26;101118.36;85577;1337;22585;-86
2022/05/01 07:15:24;;;;;;;;;;;;;;;29.66;19.82;101117.95;85465;1339;23101;-86
2022/05/01 07:17:29;;;;;;;;;;;;;;;29.38;20.10;101117.01;85570;1337;23116;-85
2022/05/01 07:19:36;;;;;;;;;;;;;;;29.15;19.96;101116.20;85568;1336;22524;-86
2022/05/01 07:21:41;;;;;;;;;;;;;;;28.65;20.48;101118.67;85559;1339;22530;-86
2022/05/01 07:23:45;;;;;;;;;;;;;;;27.94;20.50;101121.32;85573;1337;22500;-77
2022/05/01 07:25:50;;;;;;;;;;;;;;;27.50;21.16;101126.02;85473;1339;23074;-76
2022/05/01 07:27:55;;;;;;;;;;;;;;;27.15;21.15;101124.38;85565;1341;22586;-77
2022/05/01 07:29:59;;;;;;;;;;;;;;;26.94;21.18;101121.67;85567;1338;22441;-77
2022/05/01 07:32:04;;;;;;;;;;;;;;;26.84;21.43;101118.19;85559;1338;23126;-77
2022/05/01 07:34:10;;;;;;;;;;;;;;;26.84;21.44;101120.14;85559;1341;22463;-76
2022/05/01 07:36:19;;;;;;;;;;;;;;;27.05;21.83;101126.93;85460;1339;23335;-77
2022/05/01 07:38:26;;;;;;;;;;;;;;;27.37;21.22;101126.91;85341;1342;22525;-77
2022/05/01 07:40:34;;;;;;;;;;;;;;;27.78;20.76;101128.85;85562;1338;22514;-76
2022/05/01 07:42:38;;;;;;;;;;;;;;;28.07;20.31;101127.90;85556;1339;23169;-77
2022/05/01 07:44:43;;;;;;;;;;;;;;;28.26;20.36;101127.27;85567;1341;23141;-77
2022/05/01 07:46:51;;;;;;;;;;;;;;;28.38;20.07;101124.84;85566;1341;23069;-77
2022/05/01 07:48:55;;;;;;;;;;;;;;;28.53;20.05;101121.30;85564;1339;22718;-84
2022/05/01 07:51:00;;;;;;;;;;;;;;;28.53;19.79;101121.98;85556;1338;23053;-85
2022/05/01 07:53:05;;;;;;;;;;;;;;;28.58;20.03;101120.09;85577;1339;23146;-85
2022/05/01 07:55:10;;;;;;;;;;;;;;;28.61;19.81;101120.42;85474;1338;22473;-85
2022/05/01 07:57:20;;;;;;;;;;;;;;;28.54;19.14;101115.43;85568;1339;22502;-88
2022/05/01 07:59:25;;;;;;;;;;;;;;;28.43;18.86;101115.30;85570;1339;22532;-88
2022/05/01 08:01:30;;;;;;;;;;;;;;;28.32;19.19;101115.93;85585;1339;23975;-87
2022/05/01 08:05:54;;;;;;;;;;;;;;;28.16;19.71;101108.36;85008;1345;22489;-88
2022/05/01 08:08:05;;;;;;;;;;;;;;;27.96;19.61;101112.53;85301;1339;22515;-80
2022/05/01 08:10:10;;;;;;;;;;;;;;;27.73;19.80;101111.48;85568;1339;22494;-80
2022/05/01 08:12:18;;;;;;;;;;;;;;;27.60;19.52;101110.54;85572;1338;22631;-80
2022/05/01 08:14:23;;;;;;;;;;;;;;;27.43;19.54;101109.27;85565;1337;23270;-80
2022/05/01 08:16:31;;;;;;;;;;;;;;;27.47;19.72;101106.56;85408;1342;22538;-80
2022/05/01 08:21:08;;;;;;;;;;;;;;;28.01;20.33;101103.02;85449;1338;23064;-80
2022/05/01 08:23:13;;;;;;;;;;;;;;;28.68;19.11;101104.10;85499;1341;23142;-88
2022/05/01 08:25:21;;;;;;;;;;;;;;;29.08;18.50;101104.45;85585;1341;22456;-88
2022/05/01 08:27:33;;;;;;;;;;;;;;;29.36;17.88;101103.84;85573;1339;23124;-88
2022/05/01 08:29:38;;;;;;;;;;;;;;;29.27;17.59;101102.02;85579;1339;23130;-88
2022/05/01 08:31:43;;;;;;;;;;;;;;;29.06;17.52;101106.63;85565;1341;23197;-88
2022/05/01 08:33:48;;;;;;;;;;;;;;;28.99;18.02;101097.92;85589;1338;22460;-79
2022/05/01 08:35:55;;;;;;;;;;;;;;;29.08;18.51;101094.84;85570;1341;23155;-80
2022/05/01 08:37:59;;;;;;;;;;;;;;;29.08;18.31;101094.79;85574;1339;22730;-80
2022/05/01 08:40:10;;;;;;;;;;;;;;;29.14;18.53;101095.11;85571;1339;22477;-79
2022/05/01 08:42:15;;;;;;;;;;;;;;;29.47;17.41;101095.12;85553;1341;23186;-88
2022/05/01 08:47:26;;;;;;;;;;;;;;;29.81;17.31;101087.04;85636;1322;23115;-88
2022/05/01 08:49:36;;;;;;;;;;;;;;;29.66;17.54;101083.75;85681;1336;22487;-89
2022/05/01 08:51:41;;;;;;;;;;;;;;;29.83;16.90;101083.35;85673;1338;22473;-88
2022/05/01 08:53:49;;;;;;;;;;;;;;;30.08;16.86;101081.02;85669;1339;22471;-88
2022/05/01 08:55:56;;;;;;;;;;;;;;;30.23;16.87;101076.70;85686;1339;22584;-79
2022/05/01 08:58:01;;;;;;;;;;;;;;;30.32;16.83;101083.64;85663;1339;23024;-79
2022/05/01 09:00:11;;;;;;;;;;;;;;;30.43;16.51;101080.09;85660;1339;22546;-80
2022/05/01 09:02:16;;;;;;;;;;;;;;;30.34;16.38;101080.13;85685;1339;22659;-89
2022/05/01 09:04:24;;;;;;;;;;;;;;;29.94;16.29;101070.55;85672;1336;22497;-88
2022/05/01 09:06:29;;;;;;;;;;;;;;;29.62;16.88;101075.09;85682;1339;23214;-88
2022/05/01 09:08:38;;;;;;;;;;;;;;;29.50;16.85;101070.41;85707;1336;22533;-89
2022/05/01 09:10:43;;;;;;;;;;;;;;;29.32;16.53;101070.11;85673;1336;23576;-79
2022/05/01 09:12:52;;;;;;;;;;;;;;;29.07;16.65;101075.27;85574;1339;23222;-80
2022/05/01 09:14:59;;;;;;;;;;;;;;;28.85;16.72;101071.16;85622;1339;23143;-80
2022/05/01 09:17:18;;;;;;;;;;;;;;;28.66;17.21;101068.48;85694;1336;23190;-88
2022/05/01 09:19:31;;;;;;;;;;;;;;;28.45;15.84;101069.15;85555;1341;23093;-89
2022/05/01 09:21:53;;;;;;;;;;;;;;;28.03;16.07;101070.89;85669;1336;22495;-80
2022/05/01 09:23:59;;;;;;;;;;;;;;;27.54;16.58;101071.83;85652;1336;23263;-80
2022/05/01 09:26:04;;;;;;;;;;;;;;;27.34;17.28;101068.05;85681;1339;23068;-89
2022/05/01 09:28:21;;;;;;;;;;;;;;;27.29;17.98;101072.73;85655;1339;23310;-84
2022/05/01 09:30:32;;;;;;;;;;;;;;;27.15;18.17;101072.08;85666;1340;23053;-80
2022/05/01 09:32:37;;;;;;;;;;;;;;;26.84;18.47;101071.13;85646;1339;23075;-76
2022/05/01 09:34:44;;;;;;;;;;;;;;;26.61;18.89;101063.42;85661;1336;22673;-75
2022/05/01 09:36:49;;;;;;;;;;;;;;;26.44;19.07;101060.04;85672;1339;22523;-81
2022/05/01 09:39:03;;;;;;;;;;;;;;;26.46;19.76;101062.30;85575;1341;22512;-83
2022/05/01 09:41:17;;;;;;;;;;;;;;;26.40;18.89;101060.79;85597;1333;23109;-74
2022/05/01 09:43:37;;;;;;;;;;;;;;;26.19;18.93;101055.05;85695;1337;23137;-74
2022/05/01 09:45:42;;;;;;;;;;;;;;;26.07;19.16;101053.08;85752;1336;23126;-82
2022/05/01 09:47:47;;;;;;;;;;;;;;;25.92;19.59;101051.27;85697;1338;23084;-82
2022/05/01 09:49:52;;;;;;;;;;;;;;;25.84;19.62;101053.11;85698;1336;22465;-74
2022/05/01 09:51:57;;;;;;;;;;;;;;;25.80;19.54;101048.81;85695;1339;23187;-75
2022/05/01 09:54:03;;;;;;;;;;;;;;;25.91;19.92;101049.72;85555;1340;22560;-75
2022/05/01 09:56:09;;;;;;;;;;;;;;;25.90;19.88;101049.48;85681;1335;22441;-74
2022/05/01 09:58:16;;;;;;;;;;;;;;;25.68;19.90;101047.72;85669;1339;22497;-75
2022/05/01 10:00:42;;;;;;;;;;;;;;;25.50;20.54;101050.91;85674;1337;23040;-75
2022/05/01 10:02:47;;;;;;;;;;;;;;;25.51;20.07;101049.09;85531;1340;23217;-79
2022/05/01 10:04:52;;;;;;;;;;;;;;;25.44;20.46;101045.61;85678;1336;23133;-75
2022/05/01 10:06:57;;;;;;;;;;;;;;;25.38;20.17;101052.77;85698;1339;23188;-75
2022/05/01 10:09:02;;;;;;;;;;;;;;;25.29;20.34;101051.75;85647;1337;22467;-75
2022/05/01 10:11:07;;;;;;;;;;;;;;;25.23;20.45;101048.60;85648;1339;23220;-78
2022/05/01 10:13:11;;;;;;;;;;;;;;;25.06;20.44;101044.16;85644;1339;22451;-78
2022/05/01 10:15:16;;;;;;;;;;;;;;;24.96;20.74;101042.52;85647;1336;22516;-79
2022/05/01 10:17:20;;;;;;;;;;;;;;;24.88;20.31;101048.43;85643;1339;23180;-75
2022/05/01 10:19:25;;;;;;;;;;;;;;;24.69;20.32;101046.52;85657;1339;23127;-75
2022/05/01 10:21:30;;;;;;;;;;;;;;;24.65;20.19;101040.19;85670;1336;23250;-75
2022/05/01 10:23:35;;;;;;;;;;;;;;;24.62;20.18;101041.04;85486;1339;23058;-75
2022/05/01 10:25:51;;;;;;;;;;;;;;;24.54;20.67;101033.37;85647;1339;22471;-74
2022/05/01 10:27:57;;;;;;;;;;;;;;;24.34;20.69;101037.50;85660;1336;23159;-80
2022/05/01 10:32:59;;;;;;;;;;;;;;;24.28;21.08;101031.48;85643;1338;22572;-80
2022/05/01 10:35:46;;;;;;;;;;;;;;;24.32;21.09;101026.47;85630;1336;22487;-80
2022/05/01 10:38:19;;;;;;;;;;;;;;;24.42;21.39;101020.45;85149;1342;23177;-80
2022/05/01 10:40:23;;;;;;;;;;;;;;;24.64;20.63;101023.42;85088;1340;23129;-80
2022/05/01 10:42:42;;;;;;;;;;;;;;;24.58;20.78;101019.47;85666;1339;22438;-81
2022/05/01 10:44:51;;;;;;;;;;;;;;;24.46;20.46;101023.84;85662;1340;23154;-79
2022/05/01 10:47:06;;;;;;;;;;;;;;;24.37;20.21;101017.66;85482;1340;23202;-79
2022/05/01 10:49:33;;;;;;;;;;;;;;;24.13;20.96;101012.52;85586;1337;23258;-80
2022/05/01 10:51:49;;;;;;;;;;;;;;;23.98;21.02;101018.48;85658;1339;22487;-73
2022/05/01 10:54:25;;;;;;;;;;;;;;;23.87;20.49;101018.88;85653;1336;22532;-74
2022/05/01 10:56:34;;;;;;;;;;;;;;;23.75;20.43;101015.09;85492;1339;22571;-73
2022/05/01 10:58:40;;;;;;;;;;;;;;;23.67;20.60;101011.12;85652;1337;22522;-77
2022/05/01 11:00:46;;;;;;;;;;;;;;;23.60;21.33;101010.19;85552;1339;22517;-77
2022/05/01 11:02:51;;;;;;;;;;;;;;;23.56;21.16;101010.22;85671;1336;22593;-77
2022/05/01 11:04:59;;;;;;;;;;;;;;;23.41;21.24;101011.23;85676;1336;23269;-77
2022/05/01 11:07:09;;;;;;;;;;;;;;;23.29;21.47;101011.19;85688;1339;23190;-77
2022/05/01 11:09:19;;;;;;;;;;;;;;;23.05;21.15;101009.50;85661;1337;23015;-81
2022/05/01 11:11:25;;;;;;;;;;;;;;;22.91;21.25;101004.77;85662;1338;23026;-80
2022/05/01 11:13:31;;;;;;;;;;;;;;;22.78;21.70;101006.48;85675;1336;23126;-81
2022/05/01 11:15:35;;;;;;;;;;;;;;;22.68;21.99;101011.25;85666;1339;22497;-76
2022/05/01 11:17:55;;;;;;;;;;;;;;;22.57;21.71;101011.34;85666;1339;23121;-81